createdAt,value
2023-03-29T00:01:08.826Z,7.70
2023-03-29T00:03:35.757Z,5.15
2023-03-29T00:06:03.710Z,5.72
2023-03-29T00:08:30.398Z,5.57
2023-03-29T00:10:57.866Z,5.10
2023-03-29T00:13:25.661Z,5.72
2023-03-29T00:15:53.144Z,6.30
2023-03-29T00:18:19.776Z,5.05
2023-03-29T00:20:47.826Z,4.80
2023-03-29T00:23:14.594Z,5.40
2023-03-29T00:25:44.883Z,6.95
2023-03-29T00:28:11.441Z,6.05
2023-03-29T00:30:37.969Z,4.70
2023-03-29T00:33:04.700Z,5.13
2023-03-29T00:35:31.369Z,5.63
2023-03-29T00:37:57.928Z,6.50
2023-03-29T00:40:25.230Z,6.10
2023-03-29T00:42:51.802Z,7.45
2023-03-29T00:45:23.567Z,5.23
2023-03-29T00:48:02.893Z,5.32
2023-03-29T00:50:49.748Z,5.20
2023-03-29T00:53:34.338Z,6.43
2023-03-29T00:56:12.153Z,4.53
2023-03-29T00:58:51.893Z,6.30
2023-03-29T01:01:27.034Z,5.95
2023-03-29T01:04:01.820Z,5.00
2023-03-29T01:06:30.899Z,6.07
2023-03-29T01:09:02.206Z,6.38
2023-03-29T01:11:40.684Z,5.73
2023-03-29T01:14:26.201Z,5.72
2023-03-29T01:16:52.745Z,6.00
2023-03-29T01:19:22.798Z,7.00
2023-03-29T01:22:01.144Z,6.90
2023-03-29T01:24:39.638Z,5.67
2023-03-29T01:27:44.085Z,6.30
2023-03-29T01:30:19.810Z,5.97
2023-03-29T01:32:55.753Z,6.32
2023-03-29T01:35:38.167Z,6.53
2023-03-29T01:38:17.729Z,6.93
2023-03-29T01:40:44.410Z,9.77
2023-03-29T01:43:27.901Z,6.75
2023-03-29T01:46:09.226Z,6.80
2023-03-29T01:48:50.043Z,5.60
2023-03-29T01:51:41.634Z,5.53
2023-03-29T01:54:15.313Z,6.30
2023-03-29T01:56:45.179Z,5.95
2023-03-29T01:59:18.609Z,5.28
2023-03-29T02:01:56.508Z,7.38
2023-03-29T02:04:29.758Z,5.83
2023-03-29T02:06:58.813Z,5.93
2023-03-29T02:09:26.925Z,6.78
2023-03-29T02:11:55.484Z,5.60
2023-03-29T02:14:22.064Z,5.55
2023-03-29T02:16:48.629Z,5.83
2023-03-29T02:19:15.731Z,5.85
2023-03-29T02:21:52.384Z,7.45
2023-03-29T02:24:22.052Z,8.48
2023-03-29T02:26:49.406Z,6.53
2023-03-29T02:29:16.374Z,6.17
2023-03-29T02:32:05.195Z,5.43
2023-03-29T02:34:38.969Z,5.93
2023-03-29T02:37:12.594Z,5.97
2023-03-29T02:39:40.301Z,6.15
2023-03-29T02:42:08.429Z,5.67
2023-03-29T02:44:39.880Z,5.78
2023-03-29T02:47:13.885Z,6.85
2023-03-29T02:49:40.677Z,5.43
2023-03-29T02:52:14.257Z,6.63
2023-03-29T02:54:42.347Z,6.80
2023-03-29T02:57:10.094Z,6.75
2023-03-29T02:59:37.686Z,6.85
2023-03-29T03:02:04.928Z,10.73
2023-03-29T03:04:32.452Z,26.35
2023-03-29T03:06:59.126Z,23.87
2023-03-29T03:09:25.785Z,13.35
2023-03-29T03:11:52.330Z,16.65
2023-03-29T03:14:19.019Z,15.05
2023-03-29T03:16:45.655Z,17.10
2023-03-29T03:19:12.205Z,12.57
2023-03-29T03:21:38.711Z,10.70
2023-03-29T03:24:05.614Z,10.82
2023-03-29T03:26:32.218Z,8.75
2023-03-29T03:28:59.089Z,10.35
2023-03-29T03:31:25.687Z,10.77
2023-03-29T03:33:52.342Z,10.82
2023-03-29T03:36:18.893Z,11.38
2023-03-29T03:38:45.558Z,12.50
2023-03-29T03:41:12.357Z,14.15
2023-03-29T03:43:38.873Z,11.33
2023-03-29T03:46:05.785Z,20.98
2023-03-29T03:48:32.507Z,17.33
2023-03-29T03:50:59.307Z,25.05
2023-03-29T03:53:28.092Z,16.35
2023-03-29T03:55:55.537Z,13.93
2023-03-29T03:58:22.606Z,14.98
2023-03-29T04:00:50.244Z,13.32
2023-03-29T04:03:18.125Z,17.42
2023-03-29T04:05:46.542Z,11.73
2023-03-29T04:08:14.056Z,11.33
2023-03-29T04:10:41.270Z,13.60
2023-03-29T04:13:07.903Z,10.55
2023-03-29T04:15:35.557Z,10.85
2023-03-29T04:18:02.352Z,12.95
2023-03-29T04:20:32.015Z,13.73
2023-03-29T04:22:58.724Z,10.65
2023-03-29T04:25:25.321Z,15.38
2023-03-29T04:27:51.863Z,15.02
2023-03-29T04:30:18.487Z,21.75
2023-03-29T04:32:45.079Z,20.93
2023-03-29T04:35:11.612Z,20.27
2023-03-29T04:37:38.539Z,24.65
2023-03-29T04:40:05.537Z,25.02
2023-03-29T04:42:32.087Z,33.13
2023-03-29T04:44:58.940Z,20.13
2023-03-29T04:47:25.544Z,22.40
2023-03-29T04:49:52.201Z,22.17
2023-03-29T04:52:18.788Z,13.20
2023-03-29T04:54:45.403Z,17.23
2023-03-29T04:57:12.276Z,10.90
2023-03-29T04:59:39.048Z,9.65
2023-03-29T05:02:05.724Z,10.80
2023-03-29T05:04:32.440Z,10.48
2023-03-29T05:06:59.108Z,12.45
2023-03-29T05:09:25.664Z,13.33
2023-03-29T05:11:52.226Z,13.82
2023-03-29T05:14:18.949Z,21.60
2023-03-29T05:16:45.822Z,21.77
2023-03-29T05:19:12.572Z,21.25
2023-03-29T05:21:39.180Z,32.50
2023-03-29T11:10:15.410Z,4.90
2023-03-29T11:12:56.234Z,6.05
2023-03-29T11:15:49.325Z,6.15
2023-03-29T11:18:28.889Z,8.77
2023-03-29T11:21:03.489Z,5.43
2023-03-29T11:23:53.754Z,5.03
2023-03-29T11:26:29.856Z,6.35
2023-03-29T11:29:02.261Z,4.20
2023-03-29T11:31:44.132Z,5.78
2023-03-29T11:34:13.790Z,5.95
2023-03-29T11:36:59.352Z,6.67
2023-03-29T11:39:41.225Z,5.00
2023-03-29T11:42:23.515Z,6.07
2023-03-29T11:44:55.087Z,6.60
2023-03-29T11:47:26.792Z,6.20
2023-03-29T11:49:56.008Z,5.20
2023-03-29T11:52:30.254Z,9.00
2023-03-29T11:55:09.787Z,6.40
2023-03-29T11:57:47.959Z,8.23
2023-03-29T12:00:28.674Z,5.80
2023-03-29T12:06:07.166Z,5.25
2023-03-29T12:08:57.970Z,7.68
2023-03-29T12:11:55.279Z,6.22
2023-03-29T12:14:39.248Z,4.68
2023-03-29T12:17:14.444Z,4.57
2023-03-29T12:20:03.687Z,4.53
2023-03-29T12:22:31.290Z,4.07
2023-03-29T12:24:59.005Z,5.22
2023-03-29T12:27:30.344Z,4.35
2023-03-29T12:30:36.046Z,3.80
2023-03-29T12:33:26.333Z,4.43
2023-03-29T12:36:10.924Z,19.73
2023-03-29T12:38:38.932Z,15.82
2023-03-29T12:41:23.834Z,5.45
2023-03-29T12:43:51.048Z,4.43
2023-03-29T12:46:26.480Z,4.15
2023-03-29T12:49:00.459Z,4.43
2023-03-29T12:51:31.642Z,6.45
2023-03-29T12:54:15.917Z,4.70
2023-03-29T12:57:19.230Z,4.20
2023-03-29T12:59:51.690Z,3.10
2023-03-29T13:02:18.332Z,5.22
2023-03-29T13:04:55.156Z,5.55
2023-03-29T13:07:27.006Z,4.07
2023-03-29T13:09:54.863Z,3.87
2023-03-29T13:12:25.110Z,3.50
2023-03-29T13:15:02.072Z,5.32
2023-03-29T13:17:48.252Z,4.35
2023-03-29T13:20:36.088Z,4.55
2023-03-29T13:23:17.028Z,5.50
2023-03-29T13:26:04.520Z,3.88
2023-03-29T13:29:04.408Z,7.43
2023-03-29T13:32:01.562Z,3.97
2023-03-29T13:34:30.895Z,7.05
2023-03-29T13:37:03.544Z,5.07
2023-03-29T13:39:33.683Z,5.00
2023-03-29T13:42:18.800Z,5.00
2023-03-29T13:44:47.335Z,4.13
2023-03-29T13:47:26.089Z,4.13
2023-03-29T13:49:57.805Z,7.17
2023-03-29T13:52:34.810Z,6.07
2023-03-29T13:55:15.720Z,5.10
2023-03-29T13:57:49.728Z,4.57
2023-03-29T14:00:24.881Z,5.15
2023-03-29T14:03:02.910Z,7.40
2023-03-29T14:05:33.614Z,9.25
2023-03-29T14:08:08.470Z,16.92
2023-03-29T14:10:43.625Z,6.13
2023-03-29T14:13:15.035Z,6.45
2023-03-29T14:15:46.397Z,6.43
2023-03-29T14:18:16.333Z,6.20
2023-03-29T14:20:45.493Z,5.75
2023-03-29T14:23:17.371Z,5.97
2023-03-29T14:25:44.165Z,4.90
2023-03-29T14:28:25.901Z,5.47
2023-03-29T14:30:53.159Z,4.07
2023-03-29T14:33:33.032Z,6.32
2023-03-29T14:36:02.408Z,5.65
2023-03-29T14:38:30.624Z,6.22
2023-03-29T14:41:02.036Z,12.20
2023-03-29T14:43:30.649Z,8.00
2023-03-29T14:45:58.495Z,5.75
2023-03-29T14:48:25.806Z,5.10
2023-03-29T14:50:52.831Z,5.43
2023-03-29T14:53:22.642Z,6.70
2023-03-29T14:55:51.768Z,4.30
2023-03-29T14:58:32.200Z,7.28
2023-03-29T15:01:07.759Z,6.50
2023-03-29T15:04:13.881Z,5.63
2023-03-29T15:06:42.608Z,6.70
2023-03-29T15:09:26.253Z,5.68
2023-03-29T15:11:54.885Z,9.05
2023-03-29T15:14:23.956Z,6.22
2023-03-29T15:16:52.183Z,7.25
2023-03-29T15:19:22.130Z,6.07
2023-03-29T15:21:50.114Z,5.47
2023-03-29T15:24:31.449Z,5.93
2023-03-29T15:27:03.802Z,6.03
2023-03-29T15:29:36.092Z,4.60
2023-03-29T15:32:05.128Z,6.37
2023-03-29T15:34:33.336Z,4.38
2023-03-29T15:37:02.947Z,6.18
2023-03-29T15:39:29.825Z,5.03
2023-03-29T15:41:57.691Z,8.52
2023-03-29T15:44:31.985Z,8.20
2023-03-29T15:46:58.794Z,7.30
2023-03-29T15:49:26.399Z,6.13
2023-03-29T15:51:54.105Z,7.97
2023-03-29T15:54:21.978Z,6.22
2023-03-29T15:56:55.317Z,8.13
2023-03-29T15:59:22.908Z,8.88
2023-03-29T16:01:49.750Z,8.32
2023-03-29T16:04:19.656Z,8.63
2023-03-29T16:06:48.821Z,16.88
2023-03-29T16:09:16.711Z,14.63
2023-03-29T16:11:44.875Z,14.13
2023-03-29T16:14:29.117Z,12.50
2023-03-29T16:16:59.565Z,12.00
2023-03-29T16:19:28.054Z,11.05
2023-03-29T16:21:55.349Z,14.10
2023-03-29T16:24:25.233Z,11.63
2023-03-29T16:26:55.172Z,12.85
2023-03-29T16:29:22.801Z,10.05
2023-03-29T16:31:49.809Z,11.27
2023-03-29T16:34:16.876Z,13.93
2023-03-29T16:36:43.557Z,18.30
2023-03-29T16:39:10.398Z,15.65
2023-03-29T16:41:37.199Z,15.02
2023-03-29T16:44:04.189Z,16.75
2023-03-29T16:46:31.107Z,15.93
2023-03-29T16:48:57.884Z,15.25
2023-03-29T16:51:25.500Z,33.42
2023-03-29T16:53:52.207Z,31.77
2023-03-29T16:56:19.520Z,23.60
2023-03-29T16:58:46.216Z,19.47
2023-03-29T17:01:15.356Z,14.82
2023-03-29T17:03:43.335Z,26.25
2023-03-29T17:06:11.711Z,15.55
2023-03-29T17:08:38.705Z,15.55
2023-03-29T17:11:05.950Z,14.47
2023-03-29T17:13:33.037Z,14.48
2023-03-29T17:15:59.690Z,12.65
2023-03-29T17:18:27.435Z,16.83
2023-03-29T17:20:58.925Z,23.02
2023-03-29T17:23:25.871Z,22.80
2023-03-29T17:25:54.312Z,35.17
2023-03-29T17:28:23.895Z,21.55
2023-03-29T17:30:51.045Z,16.73
2023-03-29T17:33:19.832Z,13.20
2023-03-29T17:35:48.448Z,24.47
2023-03-29T17:38:15.071Z,25.45
2023-03-29T17:40:41.933Z,33.55
2023-03-29T17:43:08.588Z,26.05
2023-03-29T17:45:35.169Z,25.95
2023-03-29T17:48:04.099Z,22.77
2023-03-29T17:50:32.284Z,21.70
2023-03-29T17:52:58.846Z,18.02
2023-03-29T17:55:25.398Z,13.68
2023-03-29T17:57:51.918Z,22.33
2023-03-29T18:00:18.958Z,116.23
2023-03-29T18:02:45.664Z,136.43
2023-03-29T18:05:12.269Z,131.88
2023-03-29T18:07:38.957Z,39.90
2023-03-29T18:10:06.412Z,24.15
2023-03-29T18:12:33.067Z,15.77
2023-03-29T18:14:59.730Z,17.88
2023-03-29T18:17:26.740Z,16.45
2023-03-29T18:19:53.346Z,19.35
2023-03-29T18:22:19.957Z,15.40
2023-03-29T18:24:46.649Z,15.27
2023-03-29T18:27:13.373Z,15.77
2023-03-29T18:29:39.921Z,10.77
2023-03-29T18:32:06.528Z,8.30
2023-03-29T18:34:33.054Z,17.02
2023-03-29T18:36:59.821Z,10.67
2023-03-29T18:39:26.392Z,10.50
2023-03-29T18:41:52.921Z,8.82
2023-03-29T18:44:19.470Z,12.43
2023-03-29T18:46:46.091Z,14.70
2023-03-29T18:49:12.649Z,11.37
2023-03-29T18:51:39.397Z,14.10
2023-03-29T18:54:06.020Z,15.48
2023-03-29T18:56:32.552Z,14.43
2023-03-29T18:58:59.407Z,13.45
2023-03-29T19:01:25.986Z,12.53
2023-03-29T19:03:52.658Z,10.82
2023-03-29T19:06:19.206Z,12.05
2023-03-29T19:08:45.836Z,12.32
2023-03-29T19:11:14.058Z,14.30
2023-03-29T19:13:41.084Z,14.97
2023-03-29T19:16:09.145Z,16.38
2023-03-29T19:18:35.943Z,15.15
2023-03-29T19:21:02.487Z,14.90
2023-03-29T19:23:29.397Z,16.25
2023-03-29T19:25:58.645Z,15.90
2023-03-29T19:28:26.038Z,17.08
2023-03-29T19:30:52.844Z,18.65
2023-03-29T19:33:19.775Z,19.08
2023-03-29T19:35:46.614Z,16.00
2023-03-29T19:38:13.211Z,14.63
2023-03-29T19:40:40.024Z,15.32
2023-03-29T19:43:06.641Z,17.60
2023-03-29T19:45:33.380Z,13.48
2023-03-29T19:48:03.123Z,13.35
2023-03-29T19:50:30.364Z,12.37
2023-03-29T19:52:59.773Z,11.85
2023-03-29T19:55:26.416Z,13.55
2023-03-29T19:57:52.969Z,9.65
2023-03-29T20:00:20.116Z,12.70
2023-03-29T20:02:46.662Z,12.63
2023-03-29T20:05:13.283Z,14.75
2023-03-29T20:07:39.812Z,12.55
2023-03-29T20:10:08.052Z,12.38
2023-03-29T20:12:37.676Z,11.23
2023-03-29T20:15:04.859Z,9.27
2023-03-29T20:17:31.611Z,10.15
2023-03-29T20:19:58.223Z,12.02
2023-03-29T20:22:24.819Z,13.52
2023-03-29T20:24:52.337Z,11.02
2023-03-29T20:27:20.209Z,10.57
2023-03-29T20:29:47.027Z,11.45
2023-03-29T20:32:13.600Z,10.60
2023-03-29T20:34:40.254Z,12.90
2023-03-29T20:37:07.018Z,9.55
2023-03-29T20:39:33.694Z,15.53
2023-03-29T20:42:00.293Z,8.93
2023-03-29T20:44:26.894Z,9.65
2023-03-29T20:46:56.321Z,11.32
2023-03-29T20:49:25.615Z,10.13
2023-03-29T20:51:53.424Z,10.63
2023-03-29T20:54:19.980Z,10.02
2023-03-29T20:56:46.553Z,9.57
2023-03-29T20:59:13.129Z,12.20
2023-03-29T21:01:39.912Z,12.43
2023-03-29T21:04:07.313Z,10.50
2023-03-29T21:06:34.845Z,9.52
2023-03-29T21:09:01.376Z,11.75
2023-03-29T21:11:28.096Z,10.02
2023-03-29T21:13:54.624Z,10.57
2023-03-29T21:16:21.171Z,10.57
2023-03-29T21:18:47.726Z,10.10
2023-03-29T21:21:14.297Z,12.13
2023-03-29T21:23:40.774Z,10.82
2023-03-29T21:26:07.399Z,14.23
2023-03-29T21:28:34.143Z,10.60
2023-03-29T21:31:04.821Z,10.70
2023-03-29T21:33:31.788Z,12.85
2023-03-29T21:35:58.491Z,10.98
2023-03-29T21:38:25.251Z,12.07
2023-03-29T21:40:55.306Z,12.17
2023-03-29T21:43:21.880Z,12.00
2023-03-29T21:45:49.546Z,11.27
2023-03-29T21:48:16.717Z,10.80
2023-03-29T21:50:43.601Z,11.35
2023-03-29T21:53:13.030Z,12.80
2023-03-29T21:55:39.740Z,11.38
2023-03-29T21:58:06.281Z,12.40
2023-03-29T22:00:32.906Z,13.18
2023-03-29T22:02:59.476Z,10.07
2023-03-29T22:05:26.223Z,11.53
2023-03-29T22:07:52.783Z,16.70
2023-03-29T22:10:22.739Z,11.05
2023-03-29T22:12:51.568Z,12.45
2023-03-29T22:15:19.292Z,14.20
2023-03-29T22:17:46.245Z,12.63
2023-03-29T22:20:13.879Z,11.52
2023-03-29T22:22:44.532Z,10.55
2023-03-29T22:25:11.582Z,11.15
2023-03-29T22:27:38.328Z,11.43
2023-03-29T22:30:08.420Z,13.57
2023-03-29T22:32:35.485Z,9.07
2023-03-29T22:35:02.419Z,12.38
2023-03-29T22:37:29.291Z,12.95
2023-03-29T22:39:56.166Z,11.23
2023-03-29T22:42:23.124Z,11.60
2023-03-29T22:44:49.665Z,11.68
2023-03-29T22:47:16.243Z,10.98
2023-03-29T22:49:47.960Z,10.25
2023-03-29T22:52:14.501Z,11.25
2023-03-29T22:54:44.627Z,12.00
2023-03-29T22:57:11.250Z,12.38
2023-03-29T22:59:37.767Z,13.73
2023-03-29T23:02:04.420Z,13.15
2023-03-29T23:04:31.245Z,12.68
2023-03-29T23:06:58.926Z,18.13
2023-03-29T23:09:25.640Z,16.05
2023-03-29T23:11:52.169Z,16.17
2023-03-29T23:14:21.479Z,15.02
2023-03-29T23:16:48.725Z,16.05
2023-03-29T23:19:15.241Z,15.83
2023-03-29T23:21:42.064Z,15.70
2023-03-29T23:24:08.658Z,16.73
2023-03-29T23:26:35.312Z,13.98
2023-03-29T23:29:02.337Z,16.50
2023-03-29T23:31:28.934Z,12.97
2023-03-29T23:33:55.769Z,14.30
2023-03-29T23:36:22.583Z,19.92
2023-03-29T23:38:53.309Z,33.88
2023-03-29T23:41:22.460Z,35.35
2023-03-29T23:43:49.059Z,32.93
2023-03-29T23:46:17.331Z,25.33
2023-03-29T23:48:45.973Z,22.85
2023-03-29T23:51:12.882Z,30.30
2023-03-29T23:53:39.493Z,34.47
2023-03-29T23:56:07.876Z,32.70
2023-03-29T23:58:36.840Z,24.10
